sensor_id;sensor_type;location;lat;lon;timestamp;temperature;humidity
10433;DHT22;5263;48.680;9.004;2023-07-13T00:02:24;18.10;99.90
10433;DHT22;5263;48.680;9.004;2023-07-13T00:04:52;18.20;99.90
10433;DHT22;5263;48.680;9.004;2023-07-13T00:07:17;18.20;99.90
10433;DHT22;5263;48.680;9.004;2023-07-13T00:09:46;18.40;99.90
10433;DHT22;5263;48.680;9.004;2023-07-13T00:12:27;18.10;99.90
10433;DHT22;5263;48.680;9.004;2023-07-13T00:14:56;18.10;99.90
10433;DHT22;5263;48.680;9.004;2023-07-13T00:17:22;18.20;99.90
10433;DHT22;5263;48.680;9.004;2023-07-13T00:19:50;17.90;99.90
10433;DHT22;5263;48.680;9.004;2023-07-13T00:22:15;17.60;99.90
10433;DHT22;5263;48.680;9.004;2023-07-13T00:24:41;17.40;99.90
10433;DHT22;5263;48.680;9.004;2023-07-13T00:27:10;17.30;99.90
10433;DHT22;5263;48.680;9.004;2023-07-13T00:29:36;17.20;99.90
10433;DHT22;5263;48.680;9.004;2023-07-13T00:32:03;17.10;99.90
10433;DHT22;5263;48.680;9.004;2023-07-13T00:34:29;17.00;99.90
10433;DHT22;5263;48.680;9.004;2023-07-13T00:36:55;17.10;99.90
10433;DHT22;5263;48.680;9.004;2023-07-13T00:39:21;16.90;99.90
10433;DHT22;5263;48.680;9.004;2023-07-13T00:41:48;17.00;99.90
10433;DHT22;5263;48.680;9.004;2023-07-13T00:44:15;17.00;99.90
10433;DHT22;5263;48.680;9.004;2023-07-13T00:46:40;17.20;99.90
10433;DHT22;5263;48.680;9.004;2023-07-13T00:49:09;17.30;99.90
10433;DHT22;5263;48.680;9.004;2023-07-13T00:52:03;17.30;99.90
10433;DHT22;5263;48.680;9.004;2023-07-13T00:54:34;17.20;99.90
10433;DHT22;5263;48.680;9.004;2023-07-13T00:57:04;17.00;99.90
10433;DHT22;5263;48.680;9.004;2023-07-13T00:59:31;16.90;99.90
10433;DHT22;5263;48.680;9.004;2023-07-13T01:01:58;16.90;99.90
10433;DHT22;5263;48.680;9.004;2023-07-13T01:04:27;16.90;99.90
10433;DHT22;5263;48.680;9.004;2023-07-13T01:06:53;16.90;99.90
10433;DHT22;5263;48.680;9.004;2023-07-13T01:09:19;17.10;99.90
10433;DHT22;5263;48.680;9.004;2023-07-13T01:11:46;17.20;99.90
10433;DHT22;5263;48.680;9.004;2023-07-13T01:14:12;17.10;99.90
10433;DHT22;5263;48.680;9.004;2023-07-13T01:16:39;17.10;99.90
10433;DHT22;5263;48.680;9.004;2023-07-13T01:21:40;17.20;99.90
10433;DHT22;5263;48.680;9.004;2023-07-13T01:24:08;17.20;99.90
10433;DHT22;5263;48.680;9.004;2023-07-13T01:26:34;17.40;99.90
10433;DHT22;5263;48.680;9.004;2023-07-13T01:29:00;17.30;99.90
10433;DHT22;5263;48.680;9.004;2023-07-13T01:31:26;17.30;99.90
10433;DHT22;5263;48.680;9.004;2023-07-13T01:33:51;17.40;99.90
10433;DHT22;5263;48.680;9.004;2023-07-13T01:36:17;17.40;99.90
10433;DHT22;5263;48.680;9.004;2023-07-13T01:38:43;17.40;99.90
10433;DHT22;5263;48.680;9.004;2023-07-13T01:41:08;17.20;99.90
10433;DHT22;5263;48.680;9.004;2023-07-13T01:43:34;17.00;99.90
10433;DHT22;5263;48.680;9.004;2023-07-13T01:45:59;17.10;99.90
10433;DHT22;5263;48.680;9.004;2023-07-13T01:48:25;17.20;99.90
10433;DHT22;5263;48.680;9.004;2023-07-13T01:50:50;17.30;99.90
10433;DHT22;5263;48.680;9.004;2023-07-13T01:53:16;17.30;99.90
10433;DHT22;5263;48.680;9.004;2023-07-13T01:55:42;17.20;99.90
10433;DHT22;5263;48.680;9.004;2023-07-13T01:58:08;17.20;99.90
10433;DHT22;5263;48.680;9.004;2023-07-13T02:00:34;17.10;99.90
10433;DHT22;5263;48.680;9.004;2023-07-13T02:02:59;16.90;99.90
10433;DHT22;5263;48.680;9.004;2023-07-13T02:05:25;16.80;99.90
10433;DHT22;5263;48.680;9.004;2023-07-13T02:07:51;16.40;99.90
10433;DHT22;5263;48.680;9.004;2023-07-13T02:10:17;16.20;99.90
10433;DHT22;5263;48.680;9.004;2023-07-13T02:12:42;15.90;99.90
10433;DHT22;5263;48.680;9.004;2023-07-13T02:15:09;15.80;99.90
10433;DHT22;5263;48.680;9.004;2023-07-13T02:17:35;15.80;99.90
10433;DHT22;5263;48.680;9.004;2023-07-13T02:20:02;15.80;99.90
10433;DHT22;5263;48.680;9.004;2023-07-13T02:22:28;15.90;99.90
10433;DHT22;5263;48.680;9.004;2023-07-13T02:24:54;16.00;99.90
10433;DHT22;5263;48.680;9.004;2023-07-13T02:27:19;15.90;99.90
10433;DHT22;5263;48.680;9.004;2023-07-13T02:29:45;15.90;99.90
10433;DHT22;5263;48.680;9.004;2023-07-13T02:32:11;15.80;99.90
10433;DHT22;5263;48.680;9.004;2023-07-13T02:34:37;15.80;99.90
10433;DHT22;5263;48.680;9.004;2023-07-13T02:37:02;15.90;99.90
10433;DHT22;5263;48.680;9.004;2023-07-13T02:39:28;15.90;99.90
10433;DHT22;5263;48.680;9.004;2023-07-13T02:41:54;15.60;99.90
10433;DHT22;5263;48.680;9.004;2023-07-13T02:44:19;15.50;99.90
10433;DHT22;5263;48.680;9.004;2023-07-13T02:46:45;15.30;99.90
10433;DHT22;5263;48.680;9.004;2023-07-13T02:49:10;15.20;99.90
10433;DHT22;5263;48.680;9.004;2023-07-13T02:51:36;15.30;99.90
10433;DHT22;5263;48.680;9.004;2023-07-13T02:54:03;15.30;99.90
10433;DHT22;5263;48.680;9.004;2023-07-13T02:56:31;15.30;99.90
10433;DHT22;5263;48.680;9.004;2023-07-13T02:58:57;15.30;99.90
10433;DHT22;5263;48.680;9.004;2023-07-13T03:01:23;15.40;99.90
10433;DHT22;5263;48.680;9.004;2023-07-13T03:03:50;15.40;99.90
10433;DHT22;5263;48.680;9.004;2023-07-13T03:06:16;15.40;99.90
10433;DHT22;5263;48.680;9.004;2023-07-13T03:08:43;15.30;99.90
10433;DHT22;5263;48.680;9.004;2023-07-13T03:11:17;15.30;99.90
10433;DHT22;5263;48.680;9.004;2023-07-13T03:13:43;15.30;99.90
10433;DHT22;5263;48.680;9.004;2023-07-13T03:16:10;15.30;99.90
10433;DHT22;5263;48.680;9.004;2023-07-13T03:18:37;15.30;99.90
10433;DHT22;5263;48.680;9.004;2023-07-13T03:21:04;15.40;99.90
10433;DHT22;5263;48.680;9.004;2023-07-13T03:23:30;15.50;99.90
10433;DHT22;5263;48.680;9.004;2023-07-13T03:26:18;15.50;99.90
10433;DHT22;5263;48.680;9.004;2023-07-13T03:28:44;15.60;99.90
10433;DHT22;5263;48.680;9.004;2023-07-13T03:31:16;15.60;99.90
10433;DHT22;5263;48.680;9.004;2023-07-13T03:33:42;15.70;99.90
10433;DHT22;5263;48.680;9.004;2023-07-13T03:36:15;15.80;99.90
10433;DHT22;5263;48.680;9.004;2023-07-13T03:38:45;15.70;99.90
10433;DHT22;5263;48.680;9.004;2023-07-13T03:41:11;15.80;99.90
10433;DHT22;5263;48.680;9.004;2023-07-13T03:43:37;15.90;99.90
10433;DHT22;5263;48.680;9.004;2023-07-13T03:46:03;15.80;99.90
10433;DHT22;5263;48.680;9.004;2023-07-13T03:48:28;15.80;99.90
10433;DHT22;5263;48.680;9.004;2023-07-13T03:50:54;15.80;99.90
10433;DHT22;5263;48.680;9.004;2023-07-13T03:53:19;16.00;99.90
10433;DHT22;5263;48.680;9.004;2023-07-13T03:55:45;15.90;99.90
10433;DHT22;5263;48.680;9.004;2023-07-13T03:58:27;16.00;99.90
10433;DHT22;5263;48.680;9.004;2023-07-13T04:00:54;16.00;99.90
10433;DHT22;5263;48.680;9.004;2023-07-13T04:03:20;15.90;99.90
10433;DHT22;5263;48.680;9.004;2023-07-13T04:05:46;16.00;99.90
10433;DHT22;5263;48.680;9.004;2023-07-13T04:08:12;16.00;99.90
10433;DHT22;5263;48.680;9.004;2023-07-13T04:10:37;16.10;99.90
10433;DHT22;5263;48.680;9.004;2023-07-13T04:13:04;16.20;99.90
10433;DHT22;5263;48.680;9.004;2023-07-13T04:15:31;16.20;99.90
10433;DHT22;5263;48.680;9.004;2023-07-13T04:17:57;16.40;99.90
10433;DHT22;5263;48.680;9.004;2023-07-13T04:20:24;16.40;99.90
10433;DHT22;5263;48.680;9.004;2023-07-13T04:22:49;16.30;99.90
10433;DHT22;5263;48.680;9.004;2023-07-13T04:25:15;16.20;99.90
10433;DHT22;5263;48.680;9.004;2023-07-13T04:27:41;16.10;99.90
10433;DHT22;5263;48.680;9.004;2023-07-13T04:30:07;16.00;99.90
10433;DHT22;5263;48.680;9.004;2023-07-13T04:32:33;16.10;99.90
10433;DHT22;5263;48.680;9.004;2023-07-13T04:34:59;16.20;99.90
10433;DHT22;5263;48.680;9.004;2023-07-13T04:37:25;16.30;99.90
10433;DHT22;5263;48.680;9.004;2023-07-13T04:39:52;16.30;99.90
10433;DHT22;5263;48.680;9.004;2023-07-13T04:42:18;16.30;99.90
10433;DHT22;5263;48.680;9.004;2023-07-13T04:44:50;16.20;99.90
10433;DHT22;5263;48.680;9.004;2023-07-13T04:47:16;16.10;99.90
10433;DHT22;5263;48.680;9.004;2023-07-13T04:49:41;16.00;99.90
10433;DHT22;5263;48.680;9.004;2023-07-13T04:52:08;16.00;99.90
10433;DHT22;5263;48.680;9.004;2023-07-13T04:54:34;15.90;99.90
10433;DHT22;5263;48.680;9.004;2023-07-13T04:57:00;15.90;99.90
10433;DHT22;5263;48.680;9.004;2023-07-13T04:59:26;15.90;99.90
10433;DHT22;5263;48.680;9.004;2023-07-13T05:01:52;16.00;99.90
10433;DHT22;5263;48.680;9.004;2023-07-13T05:04:18;16.20;99.90
10433;DHT22;5263;48.680;9.004;2023-07-13T05:06:44;16.20;99.90
10433;DHT22;5263;48.680;9.004;2023-07-13T05:09:09;16.10;99.90
10433;DHT22;5263;48.680;9.004;2023-07-13T05:11:35;16.50;99.90
10433;DHT22;5263;48.680;9.004;2023-07-13T05:14:00;16.60;99.90
10433;DHT22;5263;48.680;9.004;2023-07-13T05:16:27;16.80;99.90
10433;DHT22;5263;48.680;9.004;2023-07-13T05:18:53;17.20;99.90
10433;DHT22;5263;48.680;9.004;2023-07-13T05:21:19;17.40;99.90
10433;DHT22;5263;48.680;9.004;2023-07-13T05:23:45;17.20;99.90
10433;DHT22;5263;48.680;9.004;2023-07-13T05:26:11;17.20;99.90
10433;DHT22;5263;48.680;9.004;2023-07-13T05:28:37;17.30;99.90
10433;DHT22;5263;48.680;9.004;2023-07-13T05:31:04;17.30;99.90
10433;DHT22;5263;48.680;9.004;2023-07-13T05:33:30;17.30;99.90
10433;DHT22;5263;48.680;9.004;2023-07-13T05:35:55;17.00;99.90
10433;DHT22;5263;48.680;9.004;2023-07-13T05:38:21;17.00;99.90
10433;DHT22;5263;48.680;9.004;2023-07-13T05:40:47;17.20;99.90
10433;DHT22;5263;48.680;9.004;2023-07-13T05:43:13;17.20;99.90
10433;DHT22;5263;48.680;9.004;2023-07-13T05:45:39;17.30;99.90
10433;DHT22;5263;48.680;9.004;2023-07-13T05:48:05;17.20;99.90
10433;DHT22;5263;48.680;9.004;2023-07-13T05:50:31;17.30;99.90
10433;DHT22;5263;48.680;9.004;2023-07-13T05:52:57;17.40;99.90
10433;DHT22;5263;48.680;9.004;2023-07-13T05:55:23;17.30;99.90
10433;DHT22;5263;48.680;9.004;2023-07-13T05:57:48;17.20;99.90
10433;DHT22;5263;48.680;9.004;2023-07-13T06:00:15;17.30;99.90
10433;DHT22;5263;48.680;9.004;2023-07-13T06:02:40;17.30;99.90
10433;DHT22;5263;48.680;9.004;2023-07-13T06:05:06;17.50;99.90
10433;DHT22;5263;48.680;9.004;2023-07-13T06:07:32;17.60;99.90
10433;DHT22;5263;48.680;9.004;2023-07-13T06:09:57;17.90;99.90
10433;DHT22;5263;48.680;9.004;2023-07-13T06:12:25;18.10;99.90
10433;DHT22;5263;48.680;9.004;2023-07-13T06:14:50;18.20;99.90
10433;DHT22;5263;48.680;9.004;2023-07-13T06:17:16;18.20;99.90
10433;DHT22;5263;48.680;9.004;2023-07-13T06:19:41;18.40;99.90
10433;DHT22;5263;48.680;9.004;2023-07-13T06:22:07;18.60;99.90
10433;DHT22;5263;48.680;9.004;2023-07-13T06:24:33;18.60;99.90
10433;DHT22;5263;48.680;9.004;2023-07-13T06:26:58;18.80;99.90
10433;DHT22;5263;48.680;9.004;2023-07-13T06:29:24;18.80;99.90
10433;DHT22;5263;48.680;9.004;2023-07-13T06:31:50;19.00;99.90
10433;DHT22;5263;48.680;9.004;2023-07-13T06:34:15;19.10;99.90
10433;DHT22;5263;48.680;9.004;2023-07-13T06:36:41;19.40;99.90
10433;DHT22;5263;48.680;9.004;2023-07-13T06:39:07;19.50;99.90
10433;DHT22;5263;48.680;9.004;2023-07-13T06:41:33;19.50;99.90
10433;DHT22;5263;48.680;9.004;2023-07-13T06:43:59;19.20;99.90
10433;DHT22;5263;48.680;9.004;2023-07-13T06:46:25;19.20;99.90
10433;DHT22;5263;48.680;9.004;2023-07-13T06:48:50;19.40;99.90
10433;DHT22;5263;48.680;9.004;2023-07-13T06:51:16;19.40;99.90
10433;DHT22;5263;48.680;9.004;2023-07-13T06:53:41;19.30;99.90
10433;DHT22;5263;48.680;9.004;2023-07-13T06:56:09;19.30;99.90
10433;DHT22;5263;48.680;9.004;2023-07-13T06:58:35;19.50;99.90
10433;DHT22;5263;48.680;9.004;2023-07-13T07:01:02;19.40;99.90
10433;DHT22;5263;48.680;9.004;2023-07-13T07:03:27;19.50;99.90
10433;DHT22;5263;48.680;9.004;2023-07-13T07:05:53;19.70;99.90
10433;DHT22;5263;48.680;9.004;2023-07-13T07:08:19;19.90;99.90
10433;DHT22;5263;48.680;9.004;2023-07-13T07:10:44;19.90;99.90
10433;DHT22;5263;48.680;9.004;2023-07-13T07:13:10;19.60;99.90
10433;DHT22;5263;48.680;9.004;2023-07-13T07:15:36;19.70;99.90
10433;DHT22;5263;48.680;9.004;2023-07-13T07:18:02;19.80;99.90
10433;DHT22;5263;48.680;9.004;2023-07-13T07:20:27;19.80;99.90
10433;DHT22;5263;48.680;9.004;2023-07-13T07:22:53;19.90;99.90
10433;DHT22;5263;48.680;9.004;2023-07-13T07:25:19;20.00;99.90
10433;DHT22;5263;48.680;9.004;2023-07-13T07:27:45;19.90;99.90
10433;DHT22;5263;48.680;9.004;2023-07-13T07:30:11;20.10;99.90
10433;DHT22;5263;48.680;9.004;2023-07-13T07:32:37;20.20;99.90
10433;DHT22;5263;48.680;9.004;2023-07-13T07:35:02;20.30;98.40
10433;DHT22;5263;48.680;9.004;2023-07-13T07:37:28;20.40;99.90
10433;DHT22;5263;48.680;9.004;2023-07-13T07:39:54;20.50;99.90
10433;DHT22;5263;48.680;9.004;2023-07-13T07:42:19;20.60;99.90
10433;DHT22;5263;48.680;9.004;2023-07-13T07:44:45;20.60;99.90
10433;DHT22;5263;48.680;9.004;2023-07-13T07:47:11;20.80;99.80
10433;DHT22;5263;48.680;9.004;2023-07-13T07:49:36;20.90;99.90
10433;DHT22;5263;48.680;9.004;2023-07-13T07:52:02;21.10;99.40
10433;DHT22;5263;48.680;9.004;2023-07-13T07:54:28;21.20;99.20
10433;DHT22;5263;48.680;9.004;2023-07-13T07:56:53;21.30;99.00
10433;DHT22;5263;48.680;9.004;2023-07-13T07:59:19;21.30;96.50
10433;DHT22;5263;48.680;9.004;2023-07-13T08:01:45;21.30;97.10
10433;DHT22;5263;48.680;9.004;2023-07-13T08:04:13;21.10;96.50
10433;DHT22;5263;48.680;9.004;2023-07-13T08:06:38;21.30;97.80
10433;DHT22;5263;48.680;9.004;2023-07-13T08:09:04;21.50;94.50
10433;DHT22;5263;48.680;9.004;2023-07-13T08:11:30;21.30;96.50
10433;DHT22;5263;48.680;9.004;2023-07-13T08:13:55;21.50;95.70
10433;DHT22;5263;48.680;9.004;2023-07-13T08:16:22;21.60;94.80
10433;DHT22;5263;48.680;9.004;2023-07-13T08:18:47;21.30;94.40
10433;DHT22;5263;48.680;9.004;2023-07-13T08:21:13;21.30;94.90
10433;DHT22;5263;48.680;9.004;2023-07-13T08:23:39;21.10;96.50
10433;DHT22;5263;48.680;9.004;2023-07-13T08:26:04;21.20;97.60
10433;DHT22;5263;48.680;9.004;2023-07-13T08:28:30;21.40;95.80
10433;DHT22;5263;48.680;9.004;2023-07-13T08:31:06;21.30;96.40
10433;DHT22;5263;48.680;9.004;2023-07-13T08:33:33;21.40;95.00
10433;DHT22;5263;48.680;9.004;2023-07-13T08:35:59;21.70;95.90
10433;DHT22;5263;48.680;9.004;2023-07-13T08:38:25;22.10;94.90
10433;DHT22;5263;48.680;9.004;2023-07-13T08:40:56;22.00;93.70
10433;DHT22;5263;48.680;9.004;2023-07-13T08:43:30;21.90;93.00
10433;DHT22;5263;48.680;9.004;2023-07-13T08:46:19;21.80;93.20
10433;DHT22;5263;48.680;9.004;2023-07-13T08:48:58;21.80;92.60
10433;DHT22;5263;48.680;9.004;2023-07-13T08:54:10;22.30;93.70
10433;DHT22;5263;48.680;9.004;2023-07-13T08:56:37;22.50;92.10
10433;DHT22;5263;48.680;9.004;2023-07-13T08:59:13;22.70;91.40
10433;DHT22;5263;48.680;9.004;2023-07-13T09:02:06;23.00;90.20
10433;DHT22;5263;48.680;9.004;2023-07-13T09:04:39;23.00;89.60
10433;DHT22;5263;48.680;9.004;2023-07-13T09:15:29;23.50;89.70
10433;DHT22;5263;48.680;9.004;2023-07-13T09:18:03;23.60;88.80
10433;DHT22;5263;48.680;9.004;2023-07-13T09:20:35;23.60;84.10
10433;DHT22;5263;48.680;9.004;2023-07-13T09:23:04;23.80;84.30
10433;DHT22;5263;48.680;9.004;2023-07-13T09:25:35;24.10;85.10
10433;DHT22;5263;48.680;9.004;2023-07-13T09:28:23;24.30;84.70
10433;DHT22;5263;48.680;9.004;2023-07-13T09:33:22;24.20;84.70
10433;DHT22;5263;48.680;9.004;2023-07-13T09:35:48;24.50;85.50
10433;DHT22;5263;48.680;9.004;2023-07-13T09:38:17;24.60;87.60
10433;DHT22;5263;48.680;9.004;2023-07-13T09:43:18;24.60;84.60
10433;DHT22;5263;48.680;9.004;2023-07-13T09:45:46;24.20;88.60
10433;DHT22;5263;48.680;9.004;2023-07-13T09:48:15;24.10;86.60
10433;DHT22;5263;48.680;9.004;2023-07-13T09:50:42;24.20;87.20
10433;DHT22;5263;48.680;9.004;2023-07-13T09:53:17;24.40;87.40
10433;DHT22;5263;48.680;9.004;2023-07-13T09:55:46;24.40;87.00
10433;DHT22;5263;48.680;9.004;2023-07-13T09:58:21;24.20;90.50
10433;DHT22;5263;48.680;9.004;2023-07-13T10:01:00;23.80;85.40
10433;DHT22;5263;48.680;9.004;2023-07-13T10:03:30;23.90;85.00
10433;DHT22;5263;48.680;9.004;2023-07-13T10:06:10;23.70;84.50
10433;DHT22;5263;48.680;9.004;2023-07-13T10:08:36;23.50;85.50
10433;DHT22;5263;48.680;9.004;2023-07-13T10:11:11;23.10;84.80
10433;DHT22;5263;48.680;9.004;2023-07-13T10:14:01;23.30;87.20
10433;DHT22;5263;48.680;9.004;2023-07-13T10:16:29;23.80;87.60
10433;DHT22;5263;48.680;9.004;2023-07-13T10:19:20;23.90;85.30
10433;DHT22;5263;48.680;9.004;2023-07-13T10:22:00;24.70;86.50
10433;DHT22;5263;48.680;9.004;2023-07-13T10:24:29;25.00;79.10
10433;DHT22;5263;48.680;9.004;2023-07-13T10:27:10;25.20;75.90
10433;DHT22;5263;48.680;9.004;2023-07-13T10:29:41;25.70;76.70
10433;DHT22;5263;48.680;9.004;2023-07-13T10:32:11;26.20;75.70
10433;DHT22;5263;48.680;9.004;2023-07-13T10:34:37;26.20;72.60
10433;DHT22;5263;48.680;9.004;2023-07-13T10:37:05;26.10;73.00
10433;DHT22;5263;48.680;9.004;2023-07-13T10:39:35;27.20;72.50
10433;DHT22;5263;48.680;9.004;2023-07-13T10:42:05;27.10;74.20
10433;DHT22;5263;48.680;9.004;2023-07-13T10:44:33;26.90;75.30
10433;DHT22;5263;48.680;9.004;2023-07-13T10:47:02;27.10;68.60
10433;DHT22;5263;48.680;9.004;2023-07-13T10:49:31;28.10;73.20
10433;DHT22;5263;48.680;9.004;2023-07-13T10:51:57;29.20;67.00
10433;DHT22;5263;48.680;9.004;2023-07-13T10:54:32;30.70;63.80
10433;DHT22;5263;48.680;9.004;2023-07-13T10:57:18;30.90;60.00
10433;DHT22;5263;48.680;9.004;2023-07-13T11:00:10;31.30;59.90
10433;DHT22;5263;48.680;9.004;2023-07-13T11:02:35;31.20;56.80
10433;DHT22;5263;48.680;9.004;2023-07-13T11:05:26;30.10;59.90
10433;DHT22;5263;48.680;9.004;2023-07-13T11:10:53;26.40;69.10
10433;DHT22;5263;48.680;9.004;2023-07-13T11:13:55;25.80;72.40
10433;DHT22;5263;48.680;9.004;2023-07-13T11:18:53;26.60;64.50
10433;DHT22;5263;48.680;9.004;2023-07-13T11:21:33;27.00;67.90
10433;DHT22;5263;48.680;9.004;2023-07-13T11:24:28;26.90;68.40
10433;DHT22;5263;48.680;9.004;2023-07-13T11:26:58;26.60;67.60
10433;DHT22;5263;48.680;9.004;2023-07-13T11:32:01;26.10;68.90
10433;DHT22;5263;48.680;9.004;2023-07-13T11:34:30;25.30;69.90
10433;DHT22;5263;48.680;9.004;2023-07-13T11:36:58;25.00;74.80
10433;DHT22;5263;48.680;9.004;2023-07-13T11:39:32;25.20;72.60
10433;DHT22;5263;48.680;9.004;2023-07-13T11:42:02;26.20;68.90
10433;DHT22;5263;48.680;9.004;2023-07-13T11:44:30;29.40;63.00
10433;DHT22;5263;48.680;9.004;2023-07-13T11:46:58;32.90;51.60
10433;DHT22;5263;48.680;9.004;2023-07-13T11:49:29;31.20;56.40
10433;DHT22;5263;48.680;9.004;2023-07-13T11:51:56;30.00;54.80
10433;DHT22;5263;48.680;9.004;2023-07-13T11:54:33;28.40;59.80
10433;DHT22;5263;48.680;9.004;2023-07-13T11:57:37;27.50;58.20
10433;DHT22;5263;48.680;9.004;2023-07-13T11:59:55;26.70;62.20
10433;DHT22;5263;48.680;9.004;2023-07-13T12:02:32;27.00;66.30
10433;DHT22;5263;48.680;9.004;2023-07-13T12:05:00;29.60;62.00
10433;DHT22;5263;48.680;9.004;2023-07-13T12:07:32;32.80;51.20
10433;DHT22;5263;48.680;9.004;2023-07-13T12:10:24;34.30;48.60
10433;DHT22;5263;48.680;9.004;2023-07-13T12:12:58;36.50;47.50
10433;DHT22;5263;48.680;9.004;2023-07-13T12:15:39;34.10;45.60
10433;DHT22;5263;48.680;9.004;2023-07-13T12:20:40;32.80;47.60
10433;DHT22;5263;48.680;9.004;2023-07-13T12:23:25;31.40;48.40
10433;DHT22;5263;48.680;9.004;2023-07-13T12:25:53;30.90;52.00
10433;DHT22;5263;48.680;9.004;2023-07-13T12:31:36;32.60;50.50
10433;DHT22;5263;48.680;9.004;2023-07-13T12:34:09;35.20;46.90
10433;DHT22;5263;48.680;9.004;2023-07-13T12:36:38;35.50;43.50
10433;DHT22;5263;48.680;9.004;2023-07-13T12:41:49;36.70;41.40
10433;DHT22;5263;48.680;9.004;2023-07-13T12:44:18;33.20;45.30
10433;DHT22;5263;48.680;9.004;2023-07-13T12:46:58;31.90;46.90
10433;DHT22;5263;48.680;9.004;2023-07-13T12:49:28;33.30;46.80
10433;DHT22;5263;48.680;9.004;2023-07-13T12:51:59;34.10;45.00
10433;DHT22;5263;48.680;9.004;2023-07-13T12:54:26;35.10;45.80
10433;DHT22;5263;48.680;9.004;2023-07-13T12:56:53;35.70;41.40
10433;DHT22;5263;48.680;9.004;2023-07-13T12:59:21;35.10;42.50
10433;DHT22;5263;48.680;9.004;2023-07-13T13:01:48;36.90;41.00
10433;DHT22;5263;48.680;9.004;2023-07-13T13:04:19;34.70;41.80
10433;DHT22;5263;48.680;9.004;2023-07-13T13:06:47;32.00;45.60
10433;DHT22;5263;48.680;9.004;2023-07-13T13:09:14;30.50;48.70
10433;DHT22;5263;48.680;9.004;2023-07-13T13:11:41;30.00;47.00
10433;DHT22;5263;48.680;9.004;2023-07-13T13:14:07;31.70;45.30
10433;DHT22;5263;48.680;9.004;2023-07-13T13:16:35;34.60;41.80
10433;DHT22;5263;48.680;9.004;2023-07-13T13:19:14;36.10;37.70
10433;DHT22;5263;48.680;9.004;2023-07-13T13:21:41;35.10;37.40
10433;DHT22;5263;48.680;9.004;2023-07-13T13:24:17;32.40;41.40
10433;DHT22;5263;48.680;9.004;2023-07-13T13:26:44;31.80;43.30
10433;DHT22;5263;48.680;9.004;2023-07-13T13:29:24;33.20;41.70
10433;DHT22;5263;48.680;9.004;2023-07-13T13:31:50;33.20;39.50
10433;DHT22;5263;48.680;9.004;2023-07-13T13:34:18;33.30;39.20
10433;DHT22;5263;48.680;9.004;2023-07-13T13:36:45;35.20;38.50
10433;DHT22;5263;48.680;9.004;2023-07-13T13:41:43;36.70;35.30
10433;DHT22;5263;48.680;9.004;2023-07-13T13:44:09;35.90;35.40
10433;DHT22;5263;48.680;9.004;2023-07-13T13:46:35;34.90;36.30
10433;DHT22;5263;48.680;9.004;2023-07-13T13:49:01;35.40;36.90
10433;DHT22;5263;48.680;9.004;2023-07-13T13:51:28;36.90;35.60
10433;DHT22;5263;48.680;9.004;2023-07-13T13:53:54;34.70;36.10
10433;DHT22;5263;48.680;9.004;2023-07-13T13:56:20;34.00;37.70
10433;DHT22;5263;48.680;9.004;2023-07-13T13:58:47;35.50;37.20
10433;DHT22;5263;48.680;9.004;2023-07-13T14:01:22;37.00;34.30
10433;DHT22;5263;48.680;9.004;2023-07-13T14:03:50;35.50;37.00
10433;DHT22;5263;48.680;9.004;2023-07-13T14:06:17;37.20;35.30
10433;DHT22;5263;48.680;9.004;2023-07-13T14:08:43;36.60;35.40
10433;DHT22;5263;48.680;9.004;2023-07-13T14:11:17;35.00;35.50
10433;DHT22;5263;48.680;9.004;2023-07-13T14:13:52;33.50;37.40
10433;DHT22;5263;48.680;9.004;2023-07-13T14:16:20;31.60;40.10
10433;DHT22;5263;48.680;9.004;2023-07-13T14:18:47;30.50;42.90
10433;DHT22;5263;48.680;9.004;2023-07-13T14:21:15;31.40;42.70
10433;DHT22;5263;48.680;9.004;2023-07-13T14:23:42;32.70;42.60
10433;DHT22;5263;48.680;9.004;2023-07-13T14:28:46;29.70;44.80
10433;DHT22;5263;48.680;9.004;2023-07-13T14:31:14;29.60;46.70
10433;DHT22;5263;48.680;9.004;2023-07-13T14:36:30;31.40;44.90
10433;DHT22;5263;48.680;9.004;2023-07-13T14:38:57;31.60;43.40
10433;DHT22;5263;48.680;9.004;2023-07-13T14:41:23;29.30;46.10
10433;DHT22;5263;48.680;9.004;2023-07-13T14:43:49;27.80;49.60
10433;DHT22;5263;48.680;9.004;2023-07-13T14:46:30;27.30;52.10
10433;DHT22;5263;48.680;9.004;2023-07-13T14:49:03;27.20;52.40
10433;DHT22;5263;48.680;9.004;2023-07-13T14:51:30;28.00;50.40
10433;DHT22;5263;48.680;9.004;2023-07-13T14:53:56;28.50;50.00
10433;DHT22;5263;48.680;9.004;2023-07-13T14:56:22;27.80;51.80
10433;DHT22;5263;48.680;9.004;2023-07-13T14:58:48;27.40;51.90
10433;DHT22;5263;48.680;9.004;2023-07-13T15:01:14;27.80;51.30
10433;DHT22;5263;48.680;9.004;2023-07-13T15:03:47;27.30;53.40
10433;DHT22;5263;48.680;9.004;2023-07-13T15:06:13;27.60;51.90
10433;DHT22;5263;48.680;9.004;2023-07-13T15:08:40;27.60;52.40
10433;DHT22;5263;48.680;9.004;2023-07-13T15:11:09;27.70;51.80
10433;DHT22;5263;48.680;9.004;2023-07-13T15:13:41;27.70;52.40
10433;DHT22;5263;48.680;9.004;2023-07-13T15:16:20;26.70;52.70
10433;DHT22;5263;48.680;9.004;2023-07-13T15:18:46;26.80;54.00
10433;DHT22;5263;48.680;9.004;2023-07-13T15:21:19;26.80;53.30
10433;DHT22;5263;48.680;9.004;2023-07-13T15:23:45;26.90;53.30
10433;DHT22;5263;48.680;9.004;2023-07-13T15:26:13;26.60;53.00
10433;DHT22;5263;48.680;9.004;2023-07-13T15:28:40;26.40;53.40
10433;DHT22;5263;48.680;9.004;2023-07-13T15:31:21;26.30;53.50
10433;DHT22;5263;48.680;9.004;2023-07-13T15:33:49;26.20;53.30
10433;DHT22;5263;48.680;9.004;2023-07-13T15:36:19;26.10;53.60
10433;DHT22;5263;48.680;9.004;2023-07-13T15:38:46;26.00;53.90
10433;DHT22;5263;48.680;9.004;2023-07-13T15:41:26;26.10;54.20
10433;DHT22;5263;48.680;9.004;2023-07-13T15:43:54;26.20;54.20
10433;DHT22;5263;48.680;9.004;2023-07-13T15:46:22;26.10;54.50
10433;DHT22;5263;48.680;9.004;2023-07-13T15:48:49;26.00;55.00
10433;DHT22;5263;48.680;9.004;2023-07-13T15:51:28;25.90;53.50
10433;DHT22;5263;48.680;9.004;2023-07-13T15:53:58;25.90;54.20
10433;DHT22;5263;48.680;9.004;2023-07-13T15:56:26;25.70;55.10
10433;DHT22;5263;48.680;9.004;2023-07-13T15:58:54;25.70;55.70
10433;DHT22;5263;48.680;9.004;2023-07-13T16:01:20;25.60;56.20
10433;DHT22;5263;48.680;9.004;2023-07-13T16:03:46;25.50;55.80
10433;DHT22;5263;48.680;9.004;2023-07-13T16:06:14;25.40;56.40
10433;DHT22;5263;48.680;9.004;2023-07-13T16:08:41;25.10;56.80
10433;DHT22;5263;48.680;9.004;2023-07-13T16:11:15;25.10;57.10
10433;DHT22;5263;48.680;9.004;2023-07-13T16:13:42;25.20;56.60
10433;DHT22;5263;48.680;9.004;2023-07-13T16:16:11;25.30;56.90
10433;DHT22;5263;48.680;9.004;2023-07-13T16:18:37;25.30;57.00
10433;DHT22;5263;48.680;9.004;2023-07-13T16:21:04;25.30;57.30
10433;DHT22;5263;48.680;9.004;2023-07-13T16:23:31;25.20;56.20
10433;DHT22;5263;48.680;9.004;2023-07-13T16:25:57;25.20;57.20
10433;DHT22;5263;48.680;9.004;2023-07-13T16:28:23;25.10;57.90
10433;DHT22;5263;48.680;9.004;2023-07-13T16:30:50;25.20;57.20
10433;DHT22;5263;48.680;9.004;2023-07-13T16:33:16;25.20;56.10
10433;DHT22;5263;48.680;9.004;2023-07-13T16:35:42;25.20;55.60
10433;DHT22;5263;48.680;9.004;2023-07-13T16:38:19;25.20;56.50